Main page
METAR-TAF:

METAR-TAF

Airports :

Nouakchott–Oumtounsy International Airport

Nouakchott, Mauritania

latitude: 18-18-36N, longitude: 015-58-11W, elevation: 3 m

Current weather observation

The report was made 15 minutes ago, at 06:30 UTC
Wind 9 kt from the Northwest
Temperature 24°C
Humidity 89%
Pressure 1010 hPa
Visibility 10 km or more
no clouds below 1500 m and no cumulonimbus

METAR: GQNO 180630Z 32009KT CAVOK 24/22 Q1010 NOSIG

Time: 06:45 (06:45 UTC)

Forecast

The report was made 1 hour and 45 minutes ago, at 05:00 UTC
Forecast valid from 18 at 06 UTC to 19 at 12 UTC
Wind 12 kt from the Northwest
Visibility: 7000 m
Probability 30% :
Temporary
from 18 at 06 UTC to 18 at 09 UTC
Broken clouds at a height of 800 ft
Temporary
from 18 at 15 UTC to 18 at 20 UTC
Visibility: 3000 m
Blowing sand

TAF: GQNO 180500Z 1806/1912 32012KT 7000 NSC PROB30 TEMPO 1806/1809 BKN008 TEMPO 1815/1820 3000 BLSA

Weather observations and forecasts of more than 4000 airports (METAR and TAF reports).

The available stations are represented by yellow and red dots on the map.

Hover mouse over dot to see the name of the station.

Then click to see weather observations and forecasts.

To change the map : click on the green buttons with a black cross to zoom in, on the green button with a dash to zoom out, or on the green arrows for adjacent maps.


METAR-TAF: